Rosebud, South Dakota
Current Conditions -  °F | °C
As of 12:52 PM on Monday 22 Dec 2014 (Local Time) from KVTN Reporting Station
Unknown Precip Unknown Precip  
Wind Chill: 26°   Ceiling: 3800
Heat Index: 36°   Visibility: 10mi
Dew Point: 31°   Wind: 16mph
Humidity: 82%   Direction: 310°NW
Pressure: 29.48"   Gusts: 26mph
Location:  43.23°N, 100.86°W
Report Text: KVTN 221952Z AUTO 31014G23KT 10SM UP FEW016 BKN038 OVC047 02/M01 A2948 RMK AO2 PK WND 32034/1855 UPB41 SLP999 P0000 T00221006
Loading
Personal Weather Stations






























Interactive Weather Map New forecast layout! Learn more

10-Day Weather Forecast

Advertisements
Track Severe Weather on mobile